createdAt,value
2019-03-29T00:01:44.840Z,15.91
2019-03-29T00:04:25.049Z,15.91
2019-03-29T00:07:03.959Z,15.92
2019-03-29T00:09:40.672Z,15.68
2019-03-29T00:15:44.752Z,15.86
2019-03-29T00:18:16.919Z,15.95
2019-03-29T00:20:55.624Z,15.90
2019-03-29T00:23:43.032Z,15.86
2019-03-29T00:26:27.671Z,15.90
2019-03-29T00:32:05.978Z,15.93
2019-03-29T00:34:40.207Z,15.89
2019-03-29T00:37:17.906Z,15.85
2019-03-29T00:39:51.103Z,15.71
2019-03-29T00:42:32.895Z,15.80
2019-03-29T00:45:04.813Z,15.77
2019-03-29T00:47:41.147Z,15.66
2019-03-29T00:50:14.315Z,15.66
2019-03-29T00:52:55.190Z,15.66
2019-03-29T00:56:06.106Z,15.62
2019-03-29T00:59:03.144Z,15.41
2019-03-29T01:01:41.471Z,15.58
2019-03-29T01:04:29.096Z,15.56
2019-03-29T01:10:20.047Z,15.52
2019-03-29T01:12:55.344Z,15.23
2019-03-29T01:15:34.405Z,15.23
2019-03-29T01:18:26.557Z,15.32
2019-03-29T01:21:05.975Z,15.34
2019-03-29T01:23:43.838Z,15.30
2019-03-29T01:26:18.485Z,15.36
2019-03-29T01:28:51.132Z,15.36
2019-03-29T01:31:37.539Z,15.26
2019-03-29T01:34:54.726Z,15.24
2019-03-29T01:37:31.893Z,15.34
2019-03-29T01:40:09.416Z,15.35
2019-03-29T01:42:49.193Z,15.28
2019-03-29T01:45:26.411Z,14.92
2019-03-29T01:48:23.100Z,14.01
2019-03-29T01:51:09.563Z,14.01
2019-03-29T01:53:49.995Z,13.66
2019-03-29T01:56:47.099Z,13.53
2019-03-29T01:59:28.460Z,13.48
2019-03-29T02:02:02.662Z,13.33
2019-03-29T02:04:38.530Z,13.28
2019-03-29T02:07:12.917Z,12.86
2019-03-29T02:09:48.525Z,12.66
2019-03-29T02:12:27.387Z,12.97
2019-03-29T02:15:02.836Z,12.97
2019-03-29T02:27:39.481Z,12.61
2019-03-29T02:30:18.456Z,12.61
2019-03-29T02:32:53.447Z,12.74
2019-03-29T02:35:29.847Z,12.54
2019-03-29T02:38:09.256Z,12.31
2019-03-29T02:40:46.665Z,12.42
2019-03-29T02:43:24.367Z,11.93
2019-03-29T02:46:03.367Z,12.14
2019-03-29T02:48:36.874Z,12.80
2019-03-29T02:51:15.070Z,12.55
2019-03-29T02:53:48.178Z,12.47
2019-03-29T02:56:21.337Z,12.67
2019-03-29T02:58:54.075Z,12.93
2019-03-29T03:01:29.885Z,12.83
2019-03-29T03:04:08.713Z,13.24
2019-03-29T03:06:43.704Z,13.34
2019-03-29T03:09:20.195Z,13.51
2019-03-29T03:11:53.699Z,12.81
2019-03-29T03:14:45.822Z,13.34
2019-03-29T03:17:30.000Z,13.28
2019-03-29T03:20:07.892Z,12.40
2019-03-29T03:22:51.718Z,12.80
2019-03-29T03:25:25.354Z,12.75
2019-03-29T03:28:01.144Z,12.63
2019-03-29T03:30:39.203Z,12.78
2019-03-29T03:33:12.766Z,12.55
2019-03-29T03:35:47.902Z,12.48
2019-03-29T03:38:22.282Z,12.64
2019-03-29T03:41:05.370Z,12.62
2019-03-29T03:43:38.544Z,12.59
2019-03-29T03:46:20.836Z,12.68
2019-03-29T03:48:56.190Z,12.41
2019-03-29T03:51:31.053Z,12.53
2019-03-29T03:54:04.491Z,12.97
2019-03-29T03:56:38.582Z,12.82
2019-03-29T03:59:12.698Z,13.27
2019-03-29T04:02:30.824Z,13.46
2019-03-29T04:05:50.274Z,13.75
2019-03-29T04:12:06.656Z,13.86
2019-03-29T04:14:39.938Z,13.79
2019-03-29T04:17:13.661Z,13.77
2019-03-29T04:19:48.494Z,13.17
2019-03-29T04:22:21.051Z,13.74
2019-03-29T04:24:54.501Z,13.78
2019-03-29T04:27:31.312Z,13.78
2019-03-29T04:30:04.947Z,13.91
2019-03-29T04:32:48.048Z,14.05
2019-03-29T04:35:23.161Z,14.09
2019-03-29T04:38:05.067Z,14.09
2019-03-29T04:40:40.183Z,14.00
2019-03-29T04:43:15.905Z,13.87
2019-03-29T04:45:56.754Z,13.17
2019-03-29T04:48:39.046Z,13.54
2019-03-29T04:51:20.233Z,13.86
2019-03-29T04:53:56.764Z,13.70
2019-03-29T04:57:06.898Z,13.42
2019-03-29T04:59:44.848Z,13.21
2019-03-29T05:02:19.081Z,13.38
2019-03-29T05:04:59.311Z,12.94
2019-03-29T05:07:48.820Z,13.29
2019-03-29T05:10:47.621Z,13.39
2019-03-29T05:13:19.534Z,13.28
2019-03-29T05:16:17.037Z,13.03
2019-03-29T05:18:55.438Z,13.56
2019-03-29T05:21:37.568Z,13.73
2019-03-29T05:24:25.476Z,13.36
2019-03-29T05:27:04.975Z,13.19
2019-03-29T05:29:44.239Z,12.96
2019-03-29T05:32:24.083Z,13.47
2019-03-29T05:35:22.673Z,13.34
2019-03-29T05:38:13.576Z,12.93
2019-03-29T05:40:58.761Z,12.82
2019-03-29T05:44:04.639Z,13.00
2019-03-29T05:46:55.670Z,13.50
2019-03-29T05:49:52.637Z,13.29
2019-03-29T05:52:28.585Z,13.58
2019-03-29T05:55:37.828Z,13.53
2019-03-29T05:58:14.528Z,13.72
2019-03-29T06:01:12.441Z,13.95
2019-03-29T06:03:49.232Z,13.90
2019-03-29T06:06:27.547Z,13.94
2019-03-29T06:09:19.994Z,14.14
2019-03-29T06:11:59.116Z,14.23
2019-03-29T06:14:32.917Z,13.79
2019-03-29T06:17:09.396Z,13.88
2019-03-29T06:19:43.116Z,13.90
2019-03-29T06:22:17.291Z,13.52
2019-03-29T06:24:52.188Z,13.22
2019-03-29T06:27:30.105Z,12.52
2019-03-29T06:30:12.250Z,13.11
2019-03-29T06:32:48.558Z,13.14
2019-03-29T06:35:22.138Z,12.56
2019-03-29T06:38:01.263Z,12.37
2019-03-29T06:40:38.269Z,12.76
2019-03-29T06:43:16.739Z,13.02
2019-03-29T06:45:51.482Z,12.84
2019-03-29T06:48:25.019Z,12.11
2019-03-29T06:51:05.689Z,12.26
2019-03-29T06:53:47.917Z,12.47
2019-03-29T06:56:38.045Z,12.25
2019-03-29T06:59:21.002Z,12.91
2019-03-29T07:02:02.312Z,13.49
2019-03-29T07:04:36.995Z,13.35
2019-03-29T07:07:12.689Z,13.51
2019-03-29T07:10:28.258Z,13.31
2019-03-29T07:13:56.701Z,13.17
2019-03-29T07:20:51.487Z,14.05
2019-03-29T07:23:13.507Z,14.24
2019-03-29T07:26:30.323Z,13.99
2019-03-29T07:29:53.287Z,13.52
2019-03-29T07:32:55.305Z,13.78
2019-03-29T07:35:51.067Z,13.57
2019-03-29T07:38:46.145Z,13.77
2019-03-29T07:41:53.746Z,14.55
2019-03-29T07:44:31.680Z,14.11
2019-03-29T07:47:11.501Z,13.97
2019-03-29T07:49:49.350Z,14.35
2019-03-29T07:52:21.468Z,14.65
2019-03-29T07:54:58.076Z,14.11
2019-03-29T07:58:08.806Z,14.15
2019-03-29T08:00:46.899Z,13.92
2019-03-29T08:03:24.090Z,13.83
2019-03-29T08:06:00.679Z,13.50
2019-03-29T08:08:39.081Z,13.69
2019-03-29T08:11:26.440Z,13.40
2019-03-29T08:14:42.514Z,13.64
2019-03-29T08:17:21.853Z,13.79
2019-03-29T08:20:37.588Z,14.26
2019-03-29T08:22:50.024Z,14.49
2019-03-29T08:25:31.520Z,14.95
2019-03-29T08:28:16.701Z,15.10
2019-03-29T08:31:04.243Z,15.13
2019-03-29T08:33:41.110Z,14.61
2019-03-29T08:36:22.906Z,15.05
2019-03-29T08:39:03.483Z,15.32
2019-03-29T08:41:54.455Z,15.44
2019-03-29T08:44:31.392Z,15.43
2019-03-29T08:47:09.403Z,15.36
2019-03-29T08:50:43.731Z,15.52
2019-03-29T08:54:02.524Z,16.00
2019-03-29T08:56:38.331Z,15.88
2019-03-29T08:59:21.152Z,16.45
2019-03-29T09:01:55.817Z,16.30
2019-03-29T09:04:38.115Z,16.51
2019-03-29T09:07:20.033Z,16.35
2019-03-29T09:09:57.807Z,15.86
2019-03-29T09:12:38.786Z,15.93
2019-03-29T09:15:12.188Z,16.23
2019-03-29T09:17:47.326Z,16.86
2019-03-29T09:20:22.235Z,17.04
2019-03-29T09:23:00.113Z,17.22
2019-03-29T09:25:36.067Z,17.27
2019-03-29T09:28:20.513Z,17.41
2019-03-29T09:30:56.885Z,17.37
2019-03-29T09:33:31.993Z,17.48
2019-03-29T09:36:05.146Z,16.98
2019-03-29T09:38:43.738Z,17.37
2019-03-29T09:41:21.172Z,17.31
2019-03-29T09:44:07.355Z,17.59
2019-03-29T09:46:45.911Z,17.55
2019-03-29T09:49:35.758Z,17.25
2019-03-29T09:52:22.942Z,17.73
2019-03-29T09:55:07.290Z,17.64
2019-03-29T09:57:44.741Z,17.94
2019-03-29T10:00:23.899Z,17.59
2019-03-29T10:03:06.489Z,18.03
2019-03-29T10:06:03.130Z,18.38
2019-03-29T10:09:15.682Z,18.70
2019-03-29T10:13:04.101Z,18.43
2019-03-29T10:23:28.061Z,19.51
2019-03-29T10:26:19.814Z,18.89
2019-03-29T10:29:05.278Z,19.37
2019-03-29T10:32:09.587Z,19.72
2019-03-29T10:34:52.095Z,19.55
2019-03-29T10:37:26.954Z,19.19
2019-03-29T10:40:04.206Z,20.09
2019-03-29T10:43:01.709Z,20.21
2019-03-29T10:46:21.980Z,20.66
2019-03-29T10:49:01.604Z,20.30
2019-03-29T10:51:40.302Z,20.50
2019-03-29T10:54:16.562Z,20.42
2019-03-29T10:56:52.749Z,21.26
2019-03-29T10:59:27.600Z,21.52
2019-03-29T11:02:10.177Z,21.34
2019-03-29T11:04:45.785Z,22.03
2019-03-29T11:07:21.263Z,21.66
2019-03-29T11:10:03.740Z,21.36
2019-03-29T11:12:41.604Z,21.62
2019-03-29T11:15:16.241Z,21.62
2019-03-29T11:17:48.419Z,21.87
2019-03-29T11:20:25.991Z,22.12
2019-03-29T11:22:58.683Z,22.44
2019-03-29T11:25:35.040Z,22.70
2019-03-29T11:28:09.899Z,23.56
2019-03-29T11:30:49.933Z,23.72
2019-03-29T11:33:28.174Z,24.16
2019-03-29T11:36:05.177Z,24.41
2019-03-29T11:38:43.903Z,23.25
2019-03-29T11:41:43.250Z,24.00
2019-03-29T11:44:31.685Z,24.78
2019-03-29T11:47:07.016Z,25.04
2019-03-29T11:49:48.182Z,25.44
2019-03-29T11:52:24.147Z,25.85
2019-03-29T11:55:03.605Z,25.85
2019-03-29T11:57:38.153Z,26.16
2019-03-29T12:00:13.353Z,26.74
2019-03-29T12:03:10.154Z,26.94
2019-03-29T12:08:59.500Z,25.87
2019-03-29T12:14:58.736Z,26.93
2019-03-29T12:17:36.515Z,27.74
2019-03-29T12:20:11.701Z,27.90
2019-03-29T12:22:46.771Z,28.02
2019-03-29T12:25:21.770Z,28.26
2019-03-29T12:28:02.888Z,28.42
2019-03-29T12:31:21.760Z,28.33
2019-03-29T12:34:21.532Z,28.02
2019-03-29T12:36:54.883Z,27.63
2019-03-29T12:39:27.052Z,27.32
2019-03-29T12:41:59.122Z,27.90
2019-03-29T12:44:41.377Z,28.59
2019-03-29T12:47:38.541Z,28.78
2019-03-29T12:50:13.750Z,28.13
2019-03-29T12:52:51.204Z,27.75
2019-03-29T12:55:24.818Z,28.24
2019-03-29T12:58:00.265Z,27.65
2019-03-29T13:00:31.840Z,26.68
2019-03-29T13:03:10.604Z,26.87
2019-03-29T13:05:45.266Z,27.06
2019-03-29T13:08:24.019Z,27.53
2019-03-29T13:10:55.610Z,27.63
2019-03-29T13:13:29.360Z,26.83
2019-03-29T13:16:04.414Z,26.69
2019-03-29T13:19:04.746Z,27.98
2019-03-29T13:21:45.245Z,28.79
2019-03-29T13:24:21.705Z,29.36
2019-03-29T13:26:54.404Z,29.91
2019-03-29T13:29:28.013Z,30.97
2019-03-29T13:32:02.825Z,30.98
2019-03-29T13:34:53.649Z,32.06
2019-03-29T13:37:27.210Z,31.35
2019-03-29T13:40:00.456Z,32.14
2019-03-29T13:43:25.790Z,32.82
2019-03-29T13:46:15.338Z,33.35
2019-03-29T13:49:28.423Z,34.42
2019-03-29T13:56:04.303Z,31.44
2019-03-29T14:02:35.105Z,32.24
2019-03-29T14:05:58.867Z,33.50
2019-03-29T14:09:10.469Z,33.47
2019-03-29T14:12:26.954Z,34.87
2019-03-29T14:21:58.018Z,35.01
2019-03-29T14:24:56.237Z,34.74
2019-03-29T14:28:10.056Z,33.56
2019-03-29T14:34:51.144Z,34.52
2019-03-29T14:37:33.450Z,36.42
2019-03-29T14:40:25.501Z,36.96
2019-03-29T14:43:02.045Z,36.27
2019-03-29T14:45:43.819Z,34.47
2019-03-29T14:48:17.911Z,35.17
2019-03-29T14:51:01.411Z,34.18
2019-03-29T14:53:52.786Z,34.11
2019-03-29T14:57:14.051Z,34.07
2019-03-29T15:03:38.609Z,35.39
2019-03-29T15:06:16.121Z,32.95
2019-03-29T15:08:52.736Z,33.85
2019-03-29T15:11:25.543Z,33.63
2019-03-29T15:14:02.170Z,33.05
2019-03-29T15:16:50.063Z,32.91
2019-03-29T15:19:25.235Z,32.57
2019-03-29T15:22:01.103Z,32.31
2019-03-29T15:25:05.320Z,30.52
2019-03-29T15:28:50.938Z,29.15
2019-03-29T15:31:27.498Z,29.16
2019-03-29T15:34:01.496Z,27.60
2019-03-29T15:36:34.510Z,28.12
2019-03-29T15:39:08.098Z,28.09
2019-03-29T15:41:43.508Z,27.31
2019-03-29T15:44:21.716Z,27.40
2019-03-29T15:46:56.984Z,27.17
2019-03-29T15:49:35.954Z,27.09
2019-03-29T15:52:09.309Z,27.09
2019-03-29T15:54:44.066Z,27.09
2019-03-29T15:57:17.579Z,26.42
2019-03-29T15:59:52.052Z,25.37
2019-03-29T16:02:31.879Z,25.53
2019-03-29T16:05:08.349Z,24.87
2019-03-29T16:07:48.985Z,25.35
2019-03-29T16:10:24.615Z,24.96
2019-03-29T16:13:01.152Z,25.06
2019-03-29T16:15:53.385Z,24.06
2019-03-29T16:18:39.087Z,24.53
2019-03-29T16:21:19.067Z,24.89
2019-03-29T16:23:56.756Z,24.44
2019-03-29T16:26:43.735Z,24.30
2019-03-29T16:29:16.908Z,24.38
2019-03-29T16:31:51.694Z,24.83
2019-03-29T16:34:34.194Z,24.72
2019-03-29T16:37:11.439Z,24.72
2019-03-29T16:39:44.144Z,24.60
2019-03-29T16:42:15.422Z,24.53
2019-03-29T16:44:49.736Z,24.57
2019-03-29T16:47:21.012Z,24.57
2019-03-29T16:49:57.936Z,24.59
2019-03-29T16:52:37.089Z,24.17
2019-03-29T16:55:19.412Z,24.20
2019-03-29T16:57:58.728Z,23.96
2019-03-29T17:00:34.709Z,24.19
2019-03-29T17:03:11.054Z,23.63
2019-03-29T17:05:46.754Z,23.81
2019-03-29T17:08:25.451Z,23.90
2019-03-29T17:11:12.968Z,23.93
2019-03-29T17:13:52.525Z,23.66
2019-03-29T17:16:30.545Z,23.11
2019-03-29T17:19:02.917Z,23.51
2019-03-29T17:21:38.296Z,23.58
2019-03-29T17:24:36.586Z,23.71
2019-03-29T17:27:13.597Z,23.21
2019-03-29T17:29:51.790Z,22.77
2019-03-29T17:32:27.683Z,22.93
2019-03-29T17:34:59.223Z,22.99
2019-03-29T17:37:32.027Z,22.32
2019-03-29T17:40:07.281Z,22.99
2019-03-29T17:42:41.289Z,22.53
2019-03-29T17:45:13.174Z,22.99
2019-03-29T17:47:50.817Z,22.92
2019-03-29T17:50:31.230Z,22.92
2019-03-29T17:53:04.191Z,22.84
2019-03-29T17:55:42.357Z,22.68
2019-03-29T17:58:17.249Z,22.52
2019-03-29T18:00:48.457Z,22.16
2019-03-29T18:03:21.339Z,22.15
2019-03-29T18:05:55.349Z,22.09
2019-03-29T18:08:28.466Z,21.88
2019-03-29T18:11:05.580Z,21.83
2019-03-29T18:13:39.664Z,21.96
2019-03-29T18:16:29.550Z,21.95
2019-03-29T18:19:00.077Z,22.11
2019-03-29T18:21:47.235Z,21.26
2019-03-29T18:24:20.040Z,21.84
2019-03-29T18:27:10.404Z,21.67
2019-03-29T18:29:47.354Z,22.06
2019-03-29T18:32:23.732Z,22.28
2019-03-29T18:34:56.232Z,21.80
2019-03-29T18:37:31.534Z,21.88
2019-03-29T18:40:14.060Z,22.08
2019-03-29T18:42:47.107Z,21.73
2019-03-29T18:45:21.673Z,21.72
2019-03-29T18:47:58.127Z,21.61
2019-03-29T18:50:33.559Z,21.69
2019-03-29T18:53:09.205Z,21.45
2019-03-29T18:55:45.024Z,21.59
2019-03-29T18:58:22.855Z,21.26
2019-03-29T19:00:57.209Z,21.87
2019-03-29T19:03:32.767Z,21.42
2019-03-29T19:06:04.047Z,21.61
2019-03-29T19:08:34.831Z,21.27
2019-03-29T19:11:09.718Z,21.23
2019-03-29T19:13:42.857Z,21.37
2019-03-29T19:16:14.951Z,21.28
2019-03-29T19:18:47.325Z,21.06
2019-03-29T19:21:20.142Z,21.04
2019-03-29T19:23:52.357Z,21.03
2019-03-29T19:26:44.321Z,20.86
2019-03-29T19:29:19.490Z,20.77
2019-03-29T19:31:56.091Z,20.51
2019-03-29T19:34:30.455Z,20.53
2019-03-29T19:37:22.681Z,20.18
2019-03-29T19:39:58.352Z,20.23
2019-03-29T19:42:35.393Z,20.03
2019-03-29T19:45:12.355Z,20.42
2019-03-29T19:47:44.711Z,20.23
2019-03-29T19:50:19.132Z,20.21
2019-03-29T19:52:50.469Z,20.14
2019-03-29T19:55:22.488Z,20.52
2019-03-29T19:58:02.009Z,20.48
2019-03-29T20:00:42.595Z,20.30
2019-03-29T20:03:27.549Z,19.94
2019-03-29T20:05:59.710Z,19.91
2019-03-29T20:08:34.769Z,20.00
2019-03-29T20:11:08.426Z,20.17
2019-03-29T20:13:42.923Z,20.55
2019-03-29T20:16:17.032Z,20.52
2019-03-29T20:18:58.214Z,19.93
2019-03-29T20:21:53.714Z,19.76
2019-03-29T20:24:29.485Z,19.61
2019-03-29T20:27:07.288Z,19.93
2019-03-29T20:29:43.243Z,19.95
2019-03-29T20:32:19.824Z,19.87
2019-03-29T20:34:52.495Z,19.99
2019-03-29T20:37:27.932Z,20.04
2019-03-29T20:40:02.499Z,19.77
2019-03-29T20:42:36.691Z,19.82
2019-03-29T20:45:10.064Z,19.90
2019-03-29T20:47:43.906Z,19.87
2019-03-29T20:50:18.651Z,19.81
2019-03-29T20:52:57.791Z,19.89
2019-03-29T20:55:35.574Z,19.68
2019-03-29T20:58:12.013Z,19.80
2019-03-29T21:00:52.279Z,19.86
2019-03-29T21:03:30.985Z,19.91
2019-03-29T21:06:04.318Z,20.04
2019-03-29T21:08:36.900Z,19.92
2019-03-29T21:11:12.347Z,20.23
2019-03-29T21:13:50.096Z,20.19
2019-03-29T21:16:23.098Z,20.35
2019-03-29T21:18:55.545Z,20.34
2019-03-29T21:21:27.631Z,20.47
2019-03-29T21:23:59.870Z,20.50
2019-03-29T21:26:31.032Z,20.42
2019-03-29T21:29:03.124Z,20.28
2019-03-29T21:31:37.752Z,20.25
2019-03-29T21:34:09.154Z,20.13
2019-03-29T21:36:41.080Z,20.15
2019-03-29T21:39:15.201Z,20.21
2019-03-29T21:41:52.867Z,20.26
2019-03-29T21:44:27.272Z,20.21
2019-03-29T21:47:01.198Z,20.24
2019-03-29T21:49:35.944Z,20.21
2019-03-29T21:52:07.412Z,20.02
2019-03-29T21:54:41.798Z,19.91
2019-03-29T21:57:19.598Z,20.05
2019-03-29T21:59:51.310Z,20.02
2019-03-29T22:02:33.334Z,19.82
2019-03-29T22:05:06.134Z,19.79
2019-03-29T22:07:39.101Z,19.57
2019-03-29T22:10:13.800Z,19.61
2019-03-29T22:12:50.530Z,19.60
2019-03-29T22:15:25.436Z,19.72
2019-03-29T22:17:59.382Z,19.62
2019-03-29T22:20:37.192Z,19.61
2019-03-29T22:23:09.680Z,19.68
2019-03-29T22:25:43.991Z,19.77
2019-03-29T22:28:17.210Z,19.78
2019-03-29T22:30:48.724Z,19.66
2019-03-29T22:33:20.272Z,19.49
2019-03-29T22:35:53.919Z,19.55
2019-03-29T22:38:29.279Z,19.60
2019-03-29T22:41:01.368Z,19.48
2019-03-29T22:43:35.873Z,19.28
2019-03-29T22:46:11.644Z,19.39
2019-03-29T22:48:52.923Z,19.16
2019-03-29T22:51:21.456Z,19.11
2019-03-29T22:53:55.747Z,18.75
2019-03-29T22:56:27.685Z,18.92
2019-03-29T22:59:00.252Z,19.16
2019-03-29T23:01:38.650Z,18.81
2019-03-29T23:04:16.861Z,18.73
2019-03-29T23:06:53.438Z,18.49
2019-03-29T23:09:37.202Z,18.52
2019-03-29T23:12:09.411Z,18.57
2019-03-29T23:14:41.158Z,18.47
2019-03-29T23:17:13.228Z,18.53
2019-03-29T23:19:44.646Z,18.54
2019-03-29T23:22:19.316Z,18.44
2019-03-29T23:24:53.466Z,18.33
2019-03-29T23:27:25.290Z,18.29
2019-03-29T23:29:57.053Z,18.44
2019-03-29T23:32:29.155Z,18.55
2019-03-29T23:35:02.249Z,18.47
2019-03-29T23:37:37.245Z,18.62
2019-03-29T23:40:08.900Z,18.54
2019-03-29T23:42:40.027Z,18.32
2019-03-29T23:45:17.890Z,18.57
2019-03-29T23:47:51.385Z,18.41
2019-03-29T23:50:24.512Z,17.82
2019-03-29T23:52:58.634Z,17.77
2019-03-29T23:55:34.450Z,17.47
2019-03-29T23:58:05.883Z,17.93
